createdAt,value
2018-08-22T00:00:21.980Z,2.80
2018-08-22T00:03:19.763Z,2.73
2018-08-22T00:06:17.740Z,2.60
2018-08-22T00:09:15.812Z,2.73
2018-08-22T00:12:12.851Z,2.53
2018-08-22T00:15:10.845Z,2.80
2018-08-22T00:18:08.840Z,3.10
2018-08-22T00:21:06.772Z,2.93
2018-08-22T00:24:04.803Z,3.00
2018-08-22T00:27:02.843Z,2.63
2018-08-22T00:30:00.912Z,3.00
2018-08-22T00:32:58.826Z,3.10
2018-08-22T00:35:56.667Z,2.83
2018-08-22T00:38:53.712Z,3.00
2018-08-22T00:41:51.620Z,2.73
2018-08-22T00:44:49.433Z,3.00
2018-08-22T00:47:47.195Z,3.20
2018-08-22T00:50:44.407Z,3.03
2018-08-22T00:53:41.792Z,3.10
2018-08-22T00:56:39.747Z,3.17
2018-08-22T00:59:36.737Z,2.30
2018-08-22T01:02:34.656Z,2.97
2018-08-22T01:05:31.659Z,2.90
2018-08-22T01:08:28.759Z,2.87
2018-08-22T01:11:26.676Z,3.00
2018-08-22T01:14:23.671Z,18.90
2018-08-22T01:17:21.531Z,2.90
2018-08-22T01:20:18.556Z,3.33
2018-08-22T01:23:15.714Z,3.07
2018-08-22T01:26:13.811Z,2.97
2018-08-22T01:29:10.976Z,2.67
2018-08-22T01:32:09.147Z,2.97
2018-08-22T01:35:07.191Z,2.70
2018-08-22T01:38:05.279Z,2.83
2018-08-22T01:41:03.373Z,3.10
2018-08-22T01:44:01.267Z,3.80
2018-08-22T01:46:59.046Z,3.30
2018-08-22T01:49:56.993Z,4.13
2018-08-22T01:52:54.239Z,4.10
2018-08-22T01:55:52.210Z,4.30
2018-08-22T01:58:50.172Z,3.67
2018-08-22T02:01:48.184Z,3.67
2018-08-22T02:04:46.043Z,3.87
2018-08-22T02:07:43.308Z,3.60
2018-08-22T02:10:40.718Z,3.47
2018-08-22T02:13:37.540Z,3.53
2018-08-22T02:16:35.354Z,3.70
2018-08-22T02:19:33.316Z,3.57
2018-08-22T02:22:30.385Z,3.43
2018-08-22T02:25:28.542Z,4.13
2018-08-22T02:28:26.555Z,3.60
2018-08-22T02:31:24.476Z,3.33
2018-08-22T02:34:22.325Z,3.57
2018-08-22T02:37:20.176Z,3.57
2018-08-22T02:40:18.247Z,3.77
2018-08-22T02:43:16.347Z,3.67
2018-08-22T02:46:14.366Z,4.13
2018-08-22T02:49:12.495Z,4.23
2018-08-22T02:52:10.660Z,4.10
2018-08-22T02:55:07.756Z,4.67
2018-08-22T02:58:05.083Z,4.70
2018-08-22T03:01:02.952Z,5.03
2018-08-22T03:04:00.208Z,4.57
2018-08-22T03:06:58.272Z,4.27
2018-08-22T03:09:56.440Z,4.70
2018-08-22T03:12:53.646Z,4.83
2018-08-22T03:15:51.813Z,4.73
2018-08-22T03:18:49.844Z,5.10
2018-08-22T03:21:47.066Z,5.00
2018-08-22T03:24:45.184Z,4.47
2018-08-22T03:27:42.083Z,4.97
2018-08-22T03:30:39.366Z,4.83
2018-08-22T03:33:36.680Z,5.27
2018-08-22T03:36:34.719Z,4.83
2018-08-22T03:39:32.832Z,5.53
2018-08-22T03:42:30.780Z,5.93
2018-08-22T03:45:27.995Z,4.90
2018-08-22T03:48:25.936Z,5.03
2018-08-22T03:51:23.043Z,5.33
2018-08-22T03:54:20.143Z,4.17
2018-08-22T03:57:18.325Z,4.77
2018-08-22T04:00:16.239Z,4.87
2018-08-22T04:03:14.154Z,4.70
2018-08-22T04:06:12.022Z,5.00
2018-08-22T04:09:10.020Z,4.60
2018-08-22T04:12:07.575Z,4.40
2018-08-22T04:15:05.231Z,4.83
2018-08-22T04:18:02.727Z,4.87
2018-08-22T04:21:00.419Z,4.83
2018-08-22T04:23:57.967Z,5.03
2018-08-22T04:26:55.637Z,5.47
2018-08-22T04:29:53.088Z,4.90
2018-08-22T04:32:50.824Z,4.60
2018-08-22T04:35:48.366Z,4.90
2018-08-22T04:38:45.807Z,5.27
2018-08-22T04:41:43.251Z,5.33
2018-08-22T04:44:40.134Z,4.37
2018-08-22T04:47:37.064Z,4.60
2018-08-22T04:50:34.563Z,4.60
2018-08-22T04:53:32.223Z,5.73
2018-08-22T04:56:29.138Z,4.27
2018-08-22T04:59:25.976Z,4.50
2018-08-22T05:02:23.152Z,4.50
2018-08-22T05:05:20.736Z,4.80
2018-08-22T05:08:18.224Z,4.70
2018-08-22T05:11:15.628Z,4.93
2018-08-22T05:14:12.489Z,4.60
2018-08-22T05:17:10.027Z,5.17
2018-08-22T05:20:07.635Z,5.00
2018-08-22T05:23:04.476Z,4.93
2018-08-22T05:26:02.112Z,5.30
2018-08-22T05:28:59.733Z,4.90
2018-08-22T05:31:57.250Z,5.13
2018-08-22T05:34:54.746Z,4.37
2018-08-22T05:37:52.843Z,4.77
2018-08-22T05:40:50.164Z,5.27
2018-08-22T05:43:47.516Z,4.40
2018-08-22T05:46:45.659Z,5.13
2018-08-22T05:49:42.924Z,4.30
2018-08-22T05:52:40.989Z,5.30
2018-08-22T05:55:38.720Z,4.63
2018-08-22T05:58:36.707Z,4.47
2018-08-22T06:01:34.722Z,4.57
2018-08-22T06:04:32.743Z,4.20
2018-08-22T06:07:30.857Z,4.50
2018-08-22T06:10:28.800Z,3.90
2018-08-22T06:13:25.797Z,3.47
2018-08-22T06:16:23.097Z,3.87
2018-08-22T06:19:21.007Z,3.70
2018-08-22T06:22:18.254Z,4.00
2018-08-22T06:25:16.093Z,4.07
2018-08-22T06:28:13.808Z,4.00
2018-08-22T06:31:11.679Z,3.40
2018-08-22T06:34:09.517Z,3.23
2018-08-22T06:37:06.663Z,3.70
2018-08-22T06:40:04.665Z,3.77
2018-08-22T06:43:02.549Z,3.33
2018-08-22T06:46:00.487Z,3.27
2018-08-22T06:48:58.667Z,3.73
2018-08-22T06:51:56.810Z,3.47
2018-08-22T06:54:54.941Z,3.10
2018-08-22T06:57:52.345Z,2.80
2018-08-22T07:00:50.257Z,3.07
2018-08-22T07:03:48.304Z,3.10
2018-08-22T07:06:45.480Z,2.63
2018-08-22T07:09:43.174Z,3.60
2018-08-22T07:12:40.396Z,3.17
2018-08-22T07:15:38.389Z,3.20
2018-08-22T07:18:36.294Z,3.35
2018-08-22T07:21:33.601Z,3.33
2018-08-22T07:24:31.092Z,2.92
2018-08-22T07:27:29.152Z,3.08
2018-08-22T07:30:27.964Z,3.12
2018-08-22T07:33:25.965Z,2.98
2018-08-22T07:36:23.895Z,3.37
2018-08-22T07:39:22.723Z,3.20
2018-08-22T07:42:20.752Z,3.37
2018-08-22T07:45:18.555Z,2.92
2018-08-22T07:48:16.444Z,3.00
2018-08-22T07:51:14.321Z,3.08
2018-08-22T07:54:12.221Z,3.08
2018-08-22T07:57:10.259Z,3.42
2018-08-22T08:00:08.071Z,3.47
2018-08-22T08:03:05.978Z,2.95
2018-08-22T08:06:04.027Z,2.77
2018-08-22T08:09:02.060Z,3.08
2018-08-22T08:12:00.325Z,3.05
2018-08-22T08:15:05.353Z,3.15
2018-08-22T08:18:03.472Z,3.00
2018-08-22T08:21:01.490Z,2.85
2018-08-22T08:23:59.316Z,2.62
2018-08-22T08:26:57.268Z,2.85
2018-08-22T08:29:55.415Z,3.02
2018-08-22T08:32:53.402Z,2.92
2018-08-22T08:35:51.478Z,2.95
2018-08-22T08:38:49.263Z,2.98
2018-08-22T08:41:47.673Z,2.72
2018-08-22T08:44:45.388Z,2.92
2018-08-22T08:47:43.341Z,2.70
2018-08-22T08:50:41.263Z,2.80
2018-08-22T08:53:39.340Z,2.72
2018-08-22T08:56:36.491Z,2.83
2018-08-22T08:59:34.426Z,2.87
2018-08-22T09:02:32.595Z,2.65
2018-08-22T09:05:30.611Z,2.62
2018-08-22T09:08:28.284Z,2.87
2018-08-22T09:11:26.296Z,2.60
2018-08-22T09:14:24.320Z,2.70
2018-08-22T09:17:22.401Z,2.60
2018-08-22T09:20:21.225Z,2.77
2018-08-22T09:23:19.080Z,2.67
2018-08-22T09:26:16.725Z,2.75
2018-08-22T09:29:14.785Z,3.08
2018-08-22T09:32:12.630Z,2.80
2018-08-22T09:35:10.711Z,2.75
2018-08-22T09:38:08.758Z,2.80
2018-08-22T09:41:06.855Z,2.70
2018-08-22T09:44:04.544Z,3.33
2018-08-22T09:47:02.572Z,3.47
2018-08-22T09:50:00.574Z,2.90
2018-08-22T09:52:58.235Z,3.02
2018-08-22T09:55:56.295Z,3.52
2018-08-22T09:58:54.217Z,3.80
2018-08-22T10:01:51.946Z,3.65
2018-08-22T10:04:50.116Z,3.47
2018-08-22T10:07:47.863Z,3.73
2018-08-22T10:10:45.028Z,3.70
2018-08-22T10:13:43.089Z,3.70
2018-08-22T10:16:40.971Z,3.63
2018-08-22T10:19:38.975Z,3.47
2018-08-22T10:22:36.089Z,3.23
2018-08-22T10:25:34.100Z,3.40
2018-08-22T10:28:32.181Z,3.17
2018-08-22T10:31:31.268Z,3.67
2018-08-22T10:34:29.131Z,3.40
2018-08-22T10:37:27.068Z,3.33
2018-08-22T10:40:25.051Z,4.00
2018-08-22T10:43:22.976Z,4.17
2018-08-22T10:46:20.267Z,3.90
2018-08-22T10:49:18.255Z,3.77
2018-08-22T10:52:16.500Z,3.80
2018-08-22T10:55:14.352Z,3.90
2018-08-22T10:58:11.579Z,4.05
2018-08-22T11:01:09.420Z,4.12
2018-08-22T11:04:07.442Z,3.83
2018-08-22T11:07:05.281Z,4.25
2018-08-22T11:10:03.115Z,3.98
2018-08-22T11:13:00.947Z,4.30
2018-08-22T11:15:59.070Z,4.20
2018-08-22T11:18:57.112Z,4.55
2018-08-22T11:22:07.545Z,4.33
2018-08-22T11:25:17.715Z,4.92
2018-08-22T11:28:27.490Z,5.08
2018-08-22T11:31:37.374Z,4.45
2018-08-22T11:34:47.377Z,4.47
2018-08-22T11:37:45.254Z,4.50
2018-08-22T11:40:43.220Z,4.25
2018-08-22T11:43:41.453Z,4.80
2018-08-22T11:46:39.754Z,4.35
2018-08-22T11:49:38.564Z,5.25
2018-08-22T11:52:36.652Z,4.55
2018-08-22T11:55:34.657Z,5.08
2018-08-22T11:58:32.608Z,4.40
2018-08-22T12:01:30.604Z,5.08
2018-08-22T12:04:29.620Z,4.42
2018-08-22T12:07:26.932Z,4.22
2018-08-22T12:10:24.042Z,4.45
2018-08-22T12:13:21.567Z,4.40
2018-08-22T12:16:19.581Z,4.35
2018-08-22T12:19:17.549Z,4.47
2018-08-22T12:22:15.460Z,4.75
2018-08-22T12:25:13.360Z,4.10
2018-08-22T12:28:11.463Z,4.23
2018-08-22T12:31:09.366Z,4.30
2018-08-22T12:34:07.308Z,4.60
2018-08-22T12:37:05.246Z,4.53
2018-08-22T12:40:03.178Z,4.23
2018-08-22T12:43:01.304Z,4.20
2018-08-22T12:45:59.491Z,4.53
2018-08-22T12:48:57.255Z,4.50
2018-08-22T12:51:54.426Z,4.67
2018-08-22T12:54:52.144Z,4.90
2018-08-22T12:57:49.935Z,4.62
2018-08-22T13:00:47.740Z,4.45
2018-08-22T13:03:45.467Z,4.30
2018-08-22T13:06:43.477Z,4.30
2018-08-22T13:09:41.350Z,4.67
2018-08-22T13:12:39.293Z,4.35
2018-08-22T13:15:37.090Z,4.00
2018-08-22T13:18:35.225Z,4.53
2018-08-22T13:21:32.843Z,4.58
2018-08-22T13:24:30.572Z,4.35
2018-08-22T13:27:27.652Z,4.35
2018-08-22T13:30:25.563Z,4.17
2018-08-22T13:33:23.525Z,4.50
2018-08-22T13:36:21.487Z,4.37
2018-08-22T13:39:20.352Z,4.20
2018-08-22T13:42:18.219Z,4.33
2018-08-22T13:45:15.985Z,4.17
2018-08-22T13:48:13.995Z,4.83
2018-08-22T13:51:11.964Z,4.28
2018-08-22T13:54:10.052Z,4.33
2018-08-22T13:57:07.895Z,4.00
2018-08-22T14:00:05.812Z,4.40
2018-08-22T14:03:03.709Z,4.23
2018-08-22T14:06:01.880Z,4.30
2018-08-22T14:08:59.399Z,4.78
2018-08-22T14:11:57.142Z,4.37
2018-08-22T14:14:54.898Z,4.90
2018-08-22T14:17:52.896Z,4.65
2018-08-22T14:20:50.761Z,4.57
2018-08-22T14:23:48.540Z,4.87
2018-08-22T14:26:46.286Z,4.15
2018-08-22T14:29:44.388Z,4.22
2018-08-22T14:32:42.384Z,4.50
2018-08-22T14:35:40.188Z,4.05
2018-08-22T14:38:38.407Z,4.75
2018-08-22T14:41:35.475Z,4.53
2018-08-22T14:44:33.445Z,4.65
2018-08-22T14:47:31.372Z,4.85
2018-08-22T14:50:29.280Z,4.72
2018-08-22T14:53:27.286Z,4.95
2018-08-22T14:56:24.815Z,4.57
2018-08-22T14:59:22.513Z,4.10
2018-08-22T15:02:20.396Z,4.60
2018-08-22T15:05:18.108Z,4.30
2018-08-22T15:08:16.168Z,4.22
2018-08-22T15:11:14.143Z,4.35
2018-08-22T15:14:13.073Z,4.45
2018-08-22T15:17:10.979Z,4.20
2018-08-22T15:20:08.951Z,4.45
2018-08-22T15:23:06.780Z,4.62
2018-08-22T15:26:04.791Z,4.55
2018-08-22T15:29:02.300Z,3.97
2018-08-22T15:31:59.508Z,4.53
2018-08-22T15:35:05.524Z,4.67
2018-08-22T15:38:03.507Z,4.28
2018-08-22T15:41:01.692Z,4.33
2018-08-22T15:43:59.648Z,4.75
2018-08-22T15:46:56.728Z,4.87
2018-08-22T15:49:54.707Z,4.47
2018-08-22T15:52:52.581Z,4.33
2018-08-22T15:55:50.511Z,4.30
2018-08-22T15:58:48.676Z,4.47
2018-08-22T16:01:46.421Z,4.80
2018-08-22T16:04:45.301Z,4.77
2018-08-22T16:07:43.203Z,4.57
2018-08-22T16:10:41.166Z,5.00
2018-08-22T16:13:40.194Z,4.70
2018-08-22T16:16:45.901Z,4.83
2018-08-22T16:19:43.765Z,4.73
2018-08-22T16:22:41.680Z,4.50
2018-08-22T16:25:44.628Z,4.60
2018-08-22T16:28:43.581Z,4.63
2018-08-22T16:31:57.218Z,4.83
2018-08-22T16:34:55.140Z,4.60
2018-08-22T16:37:55.264Z,4.70
2018-08-22T16:40:55.585Z,4.13
2018-08-22T16:43:59.715Z,4.70
2018-08-22T16:46:57.719Z,4.83
2018-08-22T16:49:55.641Z,4.43
2018-08-22T16:52:53.615Z,4.80
2018-08-22T16:55:51.276Z,6.43
2018-08-22T16:58:49.447Z,5.27
2018-08-22T17:01:47.449Z,5.67
2018-08-22T17:04:45.379Z,4.73
2018-08-22T17:07:43.465Z,4.80
2018-08-22T17:10:50.392Z,4.63
2018-08-22T17:13:54.512Z,5.10
2018-08-22T17:16:51.556Z,5.20
2018-08-22T17:19:49.635Z,5.20
2018-08-22T17:22:46.696Z,5.20
2018-08-22T17:25:44.590Z,4.83
2018-08-22T17:28:44.460Z,4.57
2018-08-22T17:31:41.644Z,5.47
2018-08-22T17:34:39.505Z,5.60
2018-08-22T17:37:36.668Z,5.80
2018-08-22T17:40:34.640Z,5.30
2018-08-22T17:43:32.726Z,5.60
2018-08-22T17:46:30.600Z,5.20
2018-08-22T17:49:28.453Z,4.97
2018-08-22T17:52:27.660Z,5.40
2018-08-22T17:55:25.939Z,5.77
2018-08-22T17:58:23.654Z,5.33
2018-08-22T18:01:21.569Z,4.73
2018-08-22T18:04:18.732Z,5.00
2018-08-22T18:07:16.502Z,5.27
2018-08-22T18:10:14.396Z,4.87
2018-08-22T18:13:17.310Z,5.17
2018-08-22T18:16:14.993Z,5.53
2018-08-22T18:19:13.143Z,6.97
2018-08-22T18:22:11.993Z,15.80
2018-08-22T18:25:09.989Z,11.07
2018-08-22T18:28:11.187Z,10.67
2018-08-22T18:31:09.293Z,9.20
2018-08-22T18:34:13.108Z,8.93
2018-08-22T18:37:10.313Z,7.73
2018-08-22T18:40:40.703Z,7.10
2018-08-22T18:43:37.920Z,6.77
2018-08-22T18:46:34.942Z,7.53
2018-08-22T18:49:33.002Z,9.03
2018-08-22T18:52:31.082Z,9.27
2018-08-22T18:55:29.123Z,11.00
2018-08-22T18:58:27.032Z,11.33
2018-08-22T19:01:26.124Z,10.17
2018-08-22T19:04:24.134Z,13.43
2018-08-22T19:07:22.053Z,12.33
2018-08-22T19:10:20.177Z,8.97
2018-08-22T19:13:23.159Z,7.27
2018-08-22T19:16:21.355Z,8.50
2018-08-22T19:19:19.361Z,5.93
2018-08-22T19:22:16.755Z,6.83
2018-08-22T19:25:20.500Z,6.10
2018-08-22T19:28:18.520Z,6.53
2018-08-22T19:31:16.482Z,7.70
2018-08-22T19:34:14.563Z,6.27
2018-08-22T19:37:12.632Z,7.63
2018-08-22T19:40:18.748Z,7.43
2018-08-22T19:43:16.712Z,7.30
2018-08-22T19:46:14.497Z,6.53
2018-08-22T19:49:11.876Z,5.67
2018-08-22T19:52:09.602Z,5.87
2018-08-22T19:55:08.295Z,5.73
2018-08-22T19:58:07.270Z,6.47
2018-08-22T20:01:05.395Z,6.10
2018-08-22T20:04:06.215Z,6.50
2018-08-22T20:07:04.107Z,5.70
2018-08-22T20:10:01.874Z,6.37
